Terminal Aerodrome Forecast
Issued by NWS Amarillo, TX

Home | Current Version | Previous Version | Text Only | Print | Product List | Glossary On
Versions: 1 2 3 4 5 6 7 8 9 10 11 12 13 14
066
FTUS44 KAMA 081120
TAFGUY
TAF
KGUY 081120Z 0812/0912 32012KT P6SM SKC
     FM081600 34019G29KT P6SM FEW200
     FM082300 34014KT P6SM SCT200
     FM090100 30008KT P6SM SCT200=

USA.gov is the U.S. government's official web portal to all federal, state and local government web resources and services.